sensor_id;sensor_type;location;lat;lon;timestamp;P1;durP1;ratioP1;P2;durP2;ratioP2
18677;SDS011;9469;51.114;13.914;2023-07-13T00:01:26;3.23;;;1.90;;
18677;SDS011;9469;51.114;13.914;2023-07-13T00:06:32;2.27;;;1.53;;
18677;SDS011;9469;51.114;13.914;2023-07-13T00:11:37;1.63;;;1.53;;
18677;SDS011;9469;51.114;13.914;2023-07-13T00:16:46;1.67;;;1.57;;
18677;SDS011;9469;51.114;13.914;2023-07-13T00:21:51;3.13;;;2.13;;
18677;SDS011;9469;51.114;13.914;2023-07-13T00:26:58;2.60;;;2.00;;
18677;SDS011;9469;51.114;13.914;2023-07-13T00:32:09;3.30;;;1.83;;
18677;SDS011;9469;51.114;13.914;2023-07-13T00:37:14;3.77;;;2.07;;
18677;SDS011;9469;51.114;13.914;2023-07-13T00:42:20;3.30;;;2.10;;
18677;SDS011;9469;51.114;13.914;2023-07-13T00:47:30;6.10;;;1.90;;
18677;SDS011;9469;51.114;13.914;2023-07-13T00:52:38;4.07;;;1.87;;
18677;SDS011;9469;51.114;13.914;2023-07-13T00:57:47;3.67;;;1.90;;
18677;SDS011;9469;51.114;13.914;2023-07-13T01:02:59;5.80;;;2.40;;
18677;SDS011;9469;51.114;13.914;2023-07-13T01:08:06;3.80;;;1.80;;
18677;SDS011;9469;51.114;13.914;2023-07-13T01:13:12;3.87;;;2.20;;
18677;SDS011;9469;51.114;13.914;2023-07-13T01:18:22;3.17;;;2.37;;
18677;SDS011;9469;51.114;13.914;2023-07-13T01:23:33;5.33;;;2.53;;
18677;SDS011;9469;51.114;13.914;2023-07-13T01:28:38;3.37;;;2.43;;
18677;SDS011;9469;51.114;13.914;2023-07-13T01:33:43;3.80;;;2.20;;
18677;SDS011;9469;51.114;13.914;2023-07-13T01:38:52;3.87;;;2.17;;
18677;SDS011;9469;51.114;13.914;2023-07-13T01:43:58;4.10;;;2.43;;
18677;SDS011;9469;51.114;13.914;2023-07-13T01:49:03;5.80;;;2.40;;
18677;SDS011;9469;51.114;13.914;2023-07-13T01:54:11;5.80;;;2.03;;
18677;SDS011;9469;51.114;13.914;2023-07-13T01:59:17;6.43;;;2.63;;
18677;SDS011;9469;51.114;13.914;2023-07-13T02:04:23;3.53;;;2.60;;
18677;SDS011;9469;51.114;13.914;2023-07-13T02:09:31;2.80;;;2.23;;
18677;SDS011;9469;51.114;13.914;2023-07-13T02:14:36;3.93;;;2.30;;
18677;SDS011;9469;51.114;13.914;2023-07-13T02:19:42;3.03;;;2.20;;
18677;SDS011;9469;51.114;13.914;2023-07-13T02:24:50;5.93;;;2.57;;
18677;SDS011;9469;51.114;13.914;2023-07-13T02:29:55;3.43;;;2.53;;
18677;SDS011;9469;51.114;13.914;2023-07-13T02:35:03;4.30;;;2.40;;
18677;SDS011;9469;51.114;13.914;2023-07-13T02:40:15;5.47;;;2.80;;
18677;SDS011;9469;51.114;13.914;2023-07-13T02:45:22;4.73;;;2.73;;
18677;SDS011;9469;51.114;13.914;2023-07-13T02:50:30;2.70;;;2.07;;
18677;SDS011;9469;51.114;13.914;2023-07-13T02:55:38;6.57;;;3.00;;
18677;SDS011;9469;51.114;13.914;2023-07-13T03:00:49;2.77;;;2.23;;
18677;SDS011;9469;51.114;13.914;2023-07-13T03:05:58;3.93;;;2.50;;
18677;SDS011;9469;51.114;13.914;2023-07-13T03:11:15;5.90;;;2.60;;
18677;SDS011;9469;51.114;13.914;2023-07-13T03:16:28;6.10;;;3.00;;
18677;SDS011;9469;51.114;13.914;2023-07-13T03:21:34;3.00;;;2.67;;
18677;SDS011;9469;51.114;13.914;2023-07-13T03:26:43;3.50;;;2.50;;
18677;SDS011;9469;51.114;13.914;2023-07-13T03:31:49;6.17;;;2.80;;
18677;SDS011;9469;51.114;13.914;2023-07-13T03:36:55;4.57;;;2.97;;
18677;SDS011;9469;51.114;13.914;2023-07-13T03:42:05;3.63;;;2.80;;
18677;SDS011;9469;51.114;13.914;2023-07-13T03:47:12;5.50;;;2.23;;
18677;SDS011;9469;51.114;13.914;2023-07-13T03:52:19;4.23;;;2.60;;
18677;SDS011;9469;51.114;13.914;2023-07-13T03:57:28;3.43;;;2.50;;
18677;SDS011;9469;51.114;13.914;2023-07-13T04:02:34;4.60;;;3.13;;
18677;SDS011;9469;51.114;13.914;2023-07-13T04:07:39;6.13;;;2.57;;
18677;SDS011;9469;51.114;13.914;2023-07-13T04:12:48;4.00;;;2.60;;
18677;SDS011;9469;51.114;13.914;2023-07-13T04:17:53;7.33;;;3.37;;
18677;SDS011;9469;51.114;13.914;2023-07-13T04:23:01;3.37;;;2.50;;
18677;SDS011;9469;51.114;13.914;2023-07-13T04:28:09;4.83;;;2.70;;
18677;SDS011;9469;51.114;13.914;2023-07-13T04:33:15;3.43;;;2.40;;
18677;SDS011;9469;51.114;13.914;2023-07-13T04:38:23;3.47;;;2.53;;
18677;SDS011;9469;51.114;13.914;2023-07-13T04:43:33;6.50;;;2.53;;
18677;SDS011;9469;51.114;13.914;2023-07-13T04:48:38;2.73;;;2.43;;
18677;SDS011;9469;51.114;13.914;2023-07-13T04:53:43;6.53;;;2.80;;
18677;SDS011;9469;51.114;13.914;2023-07-13T04:58:57;3.67;;;2.63;;
18677;SDS011;9469;51.114;13.914;2023-07-13T05:04:03;6.90;;;2.87;;
18677;SDS011;9469;51.114;13.914;2023-07-13T05:09:08;4.77;;;3.17;;
18677;SDS011;9469;51.114;13.914;2023-07-13T05:14:17;6.30;;;2.97;;
18677;SDS011;9469;51.114;13.914;2023-07-13T05:19:25;5.07;;;2.40;;
18677;SDS011;9469;51.114;13.914;2023-07-13T05:24:57;5.80;;;2.90;;
18677;SDS011;9469;51.114;13.914;2023-07-13T05:30:05;4.53;;;2.63;;
18677;SDS011;9469;51.114;13.914;2023-07-13T05:35:13;5.13;;;2.57;;
18677;SDS011;9469;51.114;13.914;2023-07-13T05:40:18;3.50;;;1.73;;
18677;SDS011;9469;51.114;13.914;2023-07-13T05:45:26;2.37;;;1.70;;
18677;SDS011;9469;51.114;13.914;2023-07-13T05:50:32;3.47;;;2.17;;
18677;SDS011;9469;51.114;13.914;2023-07-13T05:55:40;2.90;;;2.30;;
18677;SDS011;9469;51.114;13.914;2023-07-13T06:00:58;3.43;;;2.10;;
18677;SDS011;9469;51.114;13.914;2023-07-13T06:06:05;3.70;;;2.13;;
18677;SDS011;9469;51.114;13.914;2023-07-13T06:11:15;6.28;;;2.28;;
18677;SDS011;9469;51.114;13.914;2023-07-13T06:16:25;3.45;;;1.80;;
18677;SDS011;9469;51.114;13.914;2023-07-13T06:21:40;2.28;;;2.00;;
18677;SDS011;9469;51.114;13.914;2023-07-13T06:26:58;5.30;;;2.05;;
18677;SDS011;9469;51.114;13.914;2023-07-13T06:32:10;3.38;;;2.20;;
18677;SDS011;9469;51.114;13.914;2023-07-13T06:37:18;3.00;;;1.92;;
18677;SDS011;9469;51.114;13.914;2023-07-13T06:42:27;3.83;;;1.83;;
18677;SDS011;9469;51.114;13.914;2023-07-13T06:47:38;3.17;;;1.90;;
18677;SDS011;9469;51.114;13.914;2023-07-13T06:52:43;4.68;;;2.15;;
18677;SDS011;9469;51.114;13.914;2023-07-13T06:57:50;5.35;;;1.90;;
18677;SDS011;9469;51.114;13.914;2023-07-13T07:03:02;3.95;;;1.73;;
18677;SDS011;9469;51.114;13.914;2023-07-13T07:08:12;4.05;;;2.45;;
18677;SDS011;9469;51.114;13.914;2023-07-13T07:13:23;3.17;;;1.63;;
18677;SDS011;9469;51.114;13.914;2023-07-13T07:18:34;6.47;;;1.92;;
18677;SDS011;9469;51.114;13.914;2023-07-13T07:23:42;7.40;;;1.95;;
18677;SDS011;9469;51.114;13.914;2023-07-13T07:28:48;3.75;;;1.90;;
18677;SDS011;9469;51.114;13.914;2023-07-13T07:34:17;5.13;;;1.92;;
18677;SDS011;9469;51.114;13.914;2023-07-13T07:39:24;3.83;;;1.83;;
18677;SDS011;9469;51.114;13.914;2023-07-13T07:44:31;3.28;;;1.60;;
18677;SDS011;9469;51.114;13.914;2023-07-13T07:49:42;3.45;;;1.75;;
18677;SDS011;9469;51.114;13.914;2023-07-13T07:54:48;4.72;;;2.00;;
18677;SDS011;9469;51.114;13.914;2023-07-13T07:59:56;5.53;;;1.55;;
18677;SDS011;9469;51.114;13.914;2023-07-13T08:05:30;4.22;;;1.60;;
18677;SDS011;9469;51.114;13.914;2023-07-13T08:10:58;5.15;;;1.60;;
18677;SDS011;9469;51.114;13.914;2023-07-13T08:16:36;4.70;;;1.70;;
18677;SDS011;9469;51.114;13.914;2023-07-13T08:27:41;4.97;;;1.80;;
18677;SDS011;9469;51.114;13.914;2023-07-13T08:33:00;6.90;;;1.50;;
18677;SDS011;9469;51.114;13.914;2023-07-13T08:38:08;6.00;;;1.95;;
18677;SDS011;9469;51.114;13.914;2023-07-13T08:43:23;5.95;;;1.70;;
18677;SDS011;9469;51.114;13.914;2023-07-13T08:48:35;6.00;;;2.05;;
18677;SDS011;9469;51.114;13.914;2023-07-13T08:53:45;5.55;;;1.95;;
18677;SDS011;9469;51.114;13.914;2023-07-13T08:59:00;3.05;;;1.80;;
18677;SDS011;9469;51.114;13.914;2023-07-13T09:04:17;5.97;;;2.60;;
18677;SDS011;9469;51.114;13.914;2023-07-13T09:09:30;5.10;;;2.13;;
18677;SDS011;9469;51.114;13.914;2023-07-13T09:14:58;3.38;;;1.80;;
18677;SDS011;9469;51.114;13.914;2023-07-13T09:20:14;4.22;;;1.67;;
18677;SDS011;9469;51.114;13.914;2023-07-13T09:25:38;4.57;;;2.08;;
18677;SDS011;9469;51.114;13.914;2023-07-13T09:31:19;4.20;;;1.40;;
18677;SDS011;9469;51.114;13.914;2023-07-13T09:36:46;3.75;;;1.73;;
18677;SDS011;9469;51.114;13.914;2023-07-13T09:43:01;3.25;;;1.60;;
18677;SDS011;9469;51.114;13.914;2023-07-13T10:05:41;4.00;;;1.50;;
18677;SDS011;9469;51.114;13.914;2023-07-13T10:22:10;3.88;;;1.33;;
18677;SDS011;9469;51.114;13.914;2023-07-13T10:50:44;3.65;;;1.27;;
18677;SDS011;9469;51.114;13.914;2023-07-13T10:56:24;5.18;;;1.35;;
18677;SDS011;9469;51.114;13.914;2023-07-13T11:07:29;3.80;;;1.38;;
18677;SDS011;9469;51.114;13.914;2023-07-13T11:18:10;2.28;;;1.17;;
18677;SDS011;9469;51.114;13.914;2023-07-13T11:23:28;4.30;;;1.10;;
18677;SDS011;9469;51.114;13.914;2023-07-13T11:28:41;3.28;;;1.30;;
18677;SDS011;9469;51.114;13.914;2023-07-13T11:33:58;3.65;;;1.45;;
18677;SDS011;9469;51.114;13.914;2023-07-13T11:39:21;6.63;;;1.95;;
18677;SDS011;9469;51.114;13.914;2023-07-13T11:44:41;2.95;;;1.00;;
18677;SDS011;9469;51.114;13.914;2023-07-13T11:50:24;1.88;;;1.40;;
18677;SDS011;9469;51.114;13.914;2023-07-13T11:55:44;3.67;;;1.33;;
18677;SDS011;9469;51.114;13.914;2023-07-13T12:00:58;6.55;;;1.27;;
18677;SDS011;9469;51.114;13.914;2023-07-13T12:06:23;2.35;;;1.13;;
18677;SDS011;9469;51.114;13.914;2023-07-13T12:17:23;4.05;;;1.60;;
18677;SDS011;9469;51.114;13.914;2023-07-13T12:23:32;4.18;;;1.58;;
18677;SDS011;9469;51.114;13.914;2023-07-13T12:28:53;3.72;;;1.45;;
18677;SDS011;9469;51.114;13.914;2023-07-13T12:40:20;2.63;;;1.40;;
18677;SDS011;9469;51.114;13.914;2023-07-13T12:46:33;3.85;;;1.70;;
18677;SDS011;9469;51.114;13.914;2023-07-13T12:51:41;3.20;;;1.33;;
18677;SDS011;9469;51.114;13.914;2023-07-13T12:57:12;3.63;;;1.40;;
18677;SDS011;9469;51.114;13.914;2023-07-13T13:02:30;4.07;;;1.48;;
18677;SDS011;9469;51.114;13.914;2023-07-13T13:07:49;3.65;;;1.45;;
18677;SDS011;9469;51.114;13.914;2023-07-13T13:13:05;4.53;;;1.20;;
18677;SDS011;9469;51.114;13.914;2023-07-13T13:18:18;4.20;;;1.40;;
18677;SDS011;9469;51.114;13.914;2023-07-13T13:23:33;4.35;;;1.38;;
18677;SDS011;9469;51.114;13.914;2023-07-13T13:28:48;5.50;;;1.50;;
18677;SDS011;9469;51.114;13.914;2023-07-13T13:34:01;3.45;;;1.30;;
18677;SDS011;9469;51.114;13.914;2023-07-13T13:39:16;2.30;;;1.83;;
18677;SDS011;9469;51.114;13.914;2023-07-13T13:44:46;7.00;;;1.58;;
18677;SDS011;9469;51.114;13.914;2023-07-13T13:50:22;2.47;;;1.00;;
18677;SDS011;9469;51.114;13.914;2023-07-13T13:55:34;2.75;;;1.15;;
18677;SDS011;9469;51.114;13.914;2023-07-13T14:00:43;6.15;;;1.58;;
18677;SDS011;9469;51.114;13.914;2023-07-13T14:05:53;5.85;;;1.30;;
18677;SDS011;9469;51.114;13.914;2023-07-13T14:11:01;2.03;;;1.30;;
18677;SDS011;9469;51.114;13.914;2023-07-13T14:16:16;5.25;;;1.50;;
18677;SDS011;9469;51.114;13.914;2023-07-13T14:21:33;1.95;;;1.23;;
18677;SDS011;9469;51.114;13.914;2023-07-13T14:26:49;4.73;;;1.20;;
18677;SDS011;9469;51.114;13.914;2023-07-13T14:32:15;2.42;;;0.90;;
18677;SDS011;9469;51.114;13.914;2023-07-13T14:37:30;3.95;;;1.35;;
18677;SDS011;9469;51.114;13.914;2023-07-13T14:42:44;1.60;;;0.90;;
18677;SDS011;9469;51.114;13.914;2023-07-13T14:48:27;3.75;;;1.30;;
18677;SDS011;9469;51.114;13.914;2023-07-13T14:53:38;6.63;;;1.17;;
18677;SDS011;9469;51.114;13.914;2023-07-13T14:59:04;3.25;;;1.33;;
18677;SDS011;9469;51.114;13.914;2023-07-13T15:04:37;5.70;;;1.35;;
18677;SDS011;9469;51.114;13.914;2023-07-13T15:09:50;3.40;;;1.52;;
18677;SDS011;9469;51.114;13.914;2023-07-13T15:15:41;5.82;;;1.30;;
18677;SDS011;9469;51.114;13.914;2023-07-13T15:21:22;1.42;;;0.98;;
18677;SDS011;9469;51.114;13.914;2023-07-13T15:26:49;6.00;;;1.20;;
18677;SDS011;9469;51.114;13.914;2023-07-13T15:32:19;5.25;;;1.42;;
18677;SDS011;9469;51.114;13.914;2023-07-13T15:50:10;6.97;;;1.30;;
18677;SDS011;9469;51.114;13.914;2023-07-13T15:55:47;3.05;;;0.90;;
18677;SDS011;9469;51.114;13.914;2023-07-13T16:01:04;2.05;;;1.05;;
18677;SDS011;9469;51.114;13.914;2023-07-13T16:06:25;3.88;;;0.77;;
18677;SDS011;9469;51.114;13.914;2023-07-13T16:11:37;1.98;;;0.80;;
18677;SDS011;9469;51.114;13.914;2023-07-13T16:16:50;1.27;;;0.80;;
18677;SDS011;9469;51.114;13.914;2023-07-13T16:22:05;2.33;;;0.90;;
18677;SDS011;9469;51.114;13.914;2023-07-13T16:27:38;2.22;;;0.80;;
18677;SDS011;9469;51.114;13.914;2023-07-13T16:33:14;4.03;;;0.73;;
18677;SDS011;9469;51.114;13.914;2023-07-13T16:44:10;1.90;;;0.82;;
18677;SDS011;9469;51.114;13.914;2023-07-13T16:49:27;1.48;;;0.70;;
18677;SDS011;9469;51.114;13.914;2023-07-13T16:54:54;4.05;;;1.10;;
18677;SDS011;9469;51.114;13.914;2023-07-13T17:00:19;4.15;;;0.90;;
18677;SDS011;9469;51.114;13.914;2023-07-13T17:05:42;4.63;;;1.50;;
18677;SDS011;9469;51.114;13.914;2023-07-13T17:10:58;2.83;;;1.48;;
18677;SDS011;9469;51.114;13.914;2023-07-13T17:16:20;2.60;;;1.30;;
18677;SDS011;9469;51.114;13.914;2023-07-13T17:21:52;5.00;;;1.63;;
18677;SDS011;9469;51.114;13.914;2023-07-13T17:27:23;3.17;;;1.60;;
18677;SDS011;9469;51.114;13.914;2023-07-13T17:32:35;2.42;;;1.70;;
18677;SDS011;9469;51.114;13.914;2023-07-13T17:37:57;2.50;;;1.50;;
18677;SDS011;9469;51.114;13.914;2023-07-13T17:43:10;2.40;;;1.27;;
18677;SDS011;9469;51.114;13.914;2023-07-13T17:48:23;5.57;;;1.60;;
18677;SDS011;9469;51.114;13.914;2023-07-13T17:53:32;7.82;;;1.30;;
18677;SDS011;9469;51.114;13.914;2023-07-13T18:11:04;3.05;;;1.10;;
18677;SDS011;9469;51.114;13.914;2023-07-13T18:16:18;3.70;;;1.25;;
18677;SDS011;9469;51.114;13.914;2023-07-13T18:21:29;3.15;;;1.55;;
18677;SDS011;9469;51.114;13.914;2023-07-13T18:26:40;3.13;;;1.10;;
18677;SDS011;9469;51.114;13.914;2023-07-13T18:31:46;1.30;;;1.10;;
18677;SDS011;9469;51.114;13.914;2023-07-13T18:36:52;13.40;;;1.40;;
18677;SDS011;9469;51.114;13.914;2023-07-13T18:42:03;1.98;;;1.15;;
18677;SDS011;9469;51.114;13.914;2023-07-13T18:47:14;3.65;;;1.00;;
18677;SDS011;9469;51.114;13.914;2023-07-13T18:52:26;2.45;;;0.90;;
18677;SDS011;9469;51.114;13.914;2023-07-13T18:57:37;2.20;;;1.00;;
18677;SDS011;9469;51.114;13.914;2023-07-13T19:02:42;4.53;;;1.00;;
18677;SDS011;9469;51.114;13.914;2023-07-13T19:07:50;3.00;;;1.15;;
18677;SDS011;9469;51.114;13.914;2023-07-13T19:13:01;3.35;;;1.10;;
18677;SDS011;9469;51.114;13.914;2023-07-13T19:18:11;3.17;;;1.30;;
18677;SDS011;9469;51.114;13.914;2023-07-13T19:23:23;2.83;;;1.20;;
18677;SDS011;9469;51.114;13.914;2023-07-13T19:28:36;2.13;;;1.10;;
18677;SDS011;9469;51.114;13.914;2023-07-13T19:33:43;6.22;;;2.22;;
18677;SDS011;9469;51.114;13.914;2023-07-13T19:38:50;1.70;;;1.50;;
18677;SDS011;9469;51.114;13.914;2023-07-13T19:44:02;3.03;;;1.42;;
18677;SDS011;9469;51.114;13.914;2023-07-13T19:49:11;4.15;;;1.30;;
18677;SDS011;9469;51.114;13.914;2023-07-13T19:54:19;1.98;;;1.30;;
18677;SDS011;9469;51.114;13.914;2023-07-13T19:59:30;3.17;;;2.47;;
18677;SDS011;9469;51.114;13.914;2023-07-13T20:04:38;4.43;;;1.30;;
18677;SDS011;9469;51.114;13.914;2023-07-13T20:09:48;4.10;;;1.40;;
18677;SDS011;9469;51.114;13.914;2023-07-13T20:14:58;7.50;;;1.23;;
18677;SDS011;9469;51.114;13.914;2023-07-13T20:20:14;3.42;;;1.50;;
18677;SDS011;9469;51.114;13.914;2023-07-13T20:25:32;2.83;;;1.58;;
18677;SDS011;9469;51.114;13.914;2023-07-13T20:30:42;3.77;;;1.53;;
18677;SDS011;9469;51.114;13.914;2023-07-13T20:35:50;3.37;;;1.87;;
18677;SDS011;9469;51.114;13.914;2023-07-13T20:40:58;4.97;;;1.90;;
18677;SDS011;9469;51.114;13.914;2023-07-13T20:46:09;2.63;;;1.80;;
18677;SDS011;9469;51.114;13.914;2023-07-13T20:51:22;4.67;;;2.43;;
18677;SDS011;9469;51.114;13.914;2023-07-13T20:56:28;5.23;;;2.20;;
18677;SDS011;9469;51.114;13.914;2023-07-13T21:01:37;4.17;;;2.10;;
18677;SDS011;9469;51.114;13.914;2023-07-13T21:06:43;4.27;;;2.57;;
18677;SDS011;9469;51.114;13.914;2023-07-13T21:11:51;5.93;;;2.87;;
18677;SDS011;9469;51.114;13.914;2023-07-13T21:17:01;4.17;;;3.33;;
18677;SDS011;9469;51.114;13.914;2023-07-13T21:22:39;5.27;;;3.47;;
18677;SDS011;9469;51.114;13.914;2023-07-13T21:27:48;3.73;;;3.07;;
18677;SDS011;9469;51.114;13.914;2023-07-13T21:33:01;3.77;;;1.83;;
18677;SDS011;9469;51.114;13.914;2023-07-13T21:38:12;2.30;;;2.10;;
18677;SDS011;9469;51.114;13.914;2023-07-13T21:43:24;8.60;;;2.00;;
18677;SDS011;9469;51.114;13.914;2023-07-13T21:48:33;3.07;;;1.90;;
18677;SDS011;9469;51.114;13.914;2023-07-13T21:53:39;3.10;;;1.40;;
18677;SDS011;9469;51.114;13.914;2023-07-13T21:58:46;2.90;;;1.50;;
18677;SDS011;9469;51.114;13.914;2023-07-13T22:03:57;2.90;;;1.60;;
18677;SDS011;9469;51.114;13.914;2023-07-13T22:09:04;3.70;;;2.00;;
18677;SDS011;9469;51.114;13.914;2023-07-13T22:14:16;4.83;;;1.70;;
18677;SDS011;9469;51.114;13.914;2023-07-13T22:19:29;4.33;;;1.80;;
18677;SDS011;9469;51.114;13.914;2023-07-13T22:24:35;3.90;;;1.53;;
18677;SDS011;9469;51.114;13.914;2023-07-13T22:29:41;3.53;;;1.73;;
18677;SDS011;9469;51.114;13.914;2023-07-13T22:34:50;6.47;;;1.70;;
18677;SDS011;9469;51.114;13.914;2023-07-13T22:39:57;5.50;;;1.70;;
18677;SDS011;9469;51.114;13.914;2023-07-13T22:45:03;3.07;;;1.60;;
18677;SDS011;9469;51.114;13.914;2023-07-13T22:50:16;3.40;;;1.77;;
18677;SDS011;9469;51.114;13.914;2023-07-13T22:55:22;5.87;;;1.70;;
18677;SDS011;9469;51.114;13.914;2023-07-13T23:00:28;1.67;;;1.30;;
18677;SDS011;9469;51.114;13.914;2023-07-13T23:05:37;2.23;;;1.50;;
18677;SDS011;9469;51.114;13.914;2023-07-13T23:10:43;2.43;;;1.80;;
18677;SDS011;9469;51.114;13.914;2023-07-13T23:15:55;2.63;;;1.70;;
18677;SDS011;9469;51.114;13.914;2023-07-13T23:21:05;4.23;;;1.70;;
18677;SDS011;9469;51.114;13.914;2023-07-13T23:26:17;4.83;;;1.90;;
18677;SDS011;9469;51.114;13.914;2023-07-13T23:31:25;4.20;;;1.73;;
18677;SDS011;9469;51.114;13.914;2023-07-13T23:36:36;3.80;;;1.90;;
18677;SDS011;9469;51.114;13.914;2023-07-13T23:41:42;3.23;;;2.03;;
18677;SDS011;9469;51.114;13.914;2023-07-13T23:46:49;2.63;;;1.90;;
18677;SDS011;9469;51.114;13.914;2023-07-13T23:51:58;2.73;;;1.90;;
18677;SDS011;9469;51.114;13.914;2023-07-13T23:57:07;2.73;;;1.50;;
